Time;durP1;ratioP1;P1;durP2;ratioP2;P2;SDS_P1;SDS_P2;PMS_P1;PMS_P2;Temp;Humidity;BMP_temperature;BMP_pressure;BME280_temperature;BME280_humidity;BME280_pressure;Samples;Min_cycle;Max_cycle;Signal;HPM_P1;HPM_P2
2020/12/02 00:00:43;;;;;;;32.27;20.90;;;4.80;52.30;;;;;;5035627;28;20566;-65
2020/12/02 00:03:18;;;;;;;30.83;19.97;;;4.80;52.50;;;;;;5035586;28;20022;-65
2020/12/02 00:05:49;;;;;;;30.57;19.57;;;4.80;52.90;;;;;;5035509;28;20370;-65
2020/12/02 00:08:25;;;;;;;30.87;19.70;;;4.80;52.60;;;;;;5035485;28;20429;-65
2020/12/02 00:10:51;;;;;;;31.97;19.70;;;4.80;53.00;;;;;;5035756;28;20078;-65
2020/12/02 00:13:35;;;;;;;31.90;19.47;;;4.80;53.10;;;;;;5035602;28;20030;-65
2020/12/02 00:16:02;;;;;;;31.27;20.23;;;4.80;53.30;;;;;;5035234;28;20034;-65
2020/12/02 00:18:29;;;;;;;32.53;19.83;;;4.80;53.20;;;;;;5034718;28;20053;-66
2020/12/02 00:20:55;;;;;;;33.90;20.70;;;4.80;52.90;;;;;;5035128;28;20123;-65
2020/12/02 00:23:21;;;;;;;29.23;19.40;;;4.80;53.10;;;;;;5035478;28;20026;-65
2020/12/02 00:25:47;;;;;;;29.90;20.50;;;4.80;53.20;;;;;;5035460;28;20030;-65
2020/12/02 00:28:13;;;;;;;30.90;19.83;;;4.70;53.30;;;;;;5035189;28;20018;-65
2020/12/02 00:30:40;;;;;;;30.00;19.80;;;4.70;53.40;;;;;;5035285;28;20022;-65
2020/12/02 00:33:08;;;;;;;38.17;20.97;;;4.70;53.60;;;;;;5034873;28;20029;-65
2020/12/02 00:35:35;;;;;;;30.37;19.97;;;4.70;53.70;;;;;;5035201;28;20496;-65
2020/12/02 00:38:02;;;;;;;32.73;20.73;;;4.70;53.70;;;;;;5035231;28;20064;-65
2020/12/02 00:40:27;;;;;;;33.53;21.10;;;4.60;53.70;;;;;;5034725;28;20061;-63
2020/12/02 00:42:53;;;;;;;28.00;18.57;;;4.60;54.00;;;;;;5034869;28;20115;-65
2020/12/02 00:45:19;;;;;;;27.30;18.77;;;4.60;53.70;;;;;;5034578;28;20025;-63
2020/12/02 00:47:50;;;;;;;28.20;18.73;;;4.60;53.70;;;;;;5035147;28;20430;-65
2020/12/02 00:50:17;;;;;;;29.47;18.73;;;4.60;54.00;;;;;;5034600;28;20041;-65
2020/12/02 00:53:04;;;;;;;36.93;19.40;;;4.50;53.60;;;;;;5034603;28;20083;-65
2020/12/02 00:55:30;;;;;;;30.90;19.17;;;4.50;54.00;;;;;;5034286;28;20030;-65
2020/12/02 00:57:56;;;;;;;29.17;19.00;;;4.50;53.90;;;;;;5034584;28;20028;-65
2020/12/02 01:00:24;;;;;;;31.53;18.90;;;4.50;54.10;;;;;;5034571;28;20040;-66
2020/12/02 01:03:17;;;;;;;30.70;19.70;;;4.50;54.00;;;;;;5034536;28;20025;-65
2020/12/02 01:05:45;;;;;;;31.47;18.70;;;4.40;54.30;;;;;;5034536;28;20025;-65
2020/12/02 01:08:19;;;;;;;28.27;18.67;;;4.40;54.70;;;;;;5034283;28;20270;-65
2020/12/02 01:10:59;;;;;;;29.10;19.27;;;4.40;54.80;;;;;;5034574;28;20454;-65
2020/12/02 01:13:25;;;;;;;29.43;18.83;;;4.30;54.90;;;;;;5034535;28;20033;-65
2020/12/02 01:15:51;;;;;;;30.27;18.43;;;4.30;55.20;;;;;;5034211;28;20030;-65
2020/12/02 01:18:26;;;;;;;31.47;20.03;;;4.30;55.20;;;;;;5034280;28;20406;-64
2020/12/02 01:21:04;;;;;;;33.53;19.67;;;4.30;55.20;;;;;;5034532;28;20436;-65
2020/12/02 01:23:33;;;;;;;32.10;20.03;;;4.30;55.40;;;;;;5034437;28;20047;-65
2020/12/02 01:25:59;;;;;;;28.10;18.20;;;4.20;55.50;;;;;;5034227;28;20028;-65
2020/12/02 01:28:30;;;;;;;28.57;18.27;;;4.20;55.20;;;;;;5034080;28;20021;-65
2020/12/02 01:30:58;;;;;;;28.23;18.57;;;4.20;55.50;;;;;;5034155;28;20025;-65
2020/12/02 01:33:24;;;;;;;29.70;18.90;;;4.20;55.40;;;;;;5034210;28;20588;-63
2020/12/02 01:35:51;;;;;;;27.53;17.83;;;4.20;55.30;;;;;;5034076;28;20025;-65
2020/12/02 01:38:33;;;;;;;28.60;18.00;;;4.20;55.30;;;;;;5034186;28;20026;-65
2020/12/02 01:40:59;;;;;;;27.60;18.73;;;4.10;55.00;;;;;;5033872;28;20040;-65
2020/12/02 01:43:25;;;;;;;30.80;19.13;;;4.10;55.20;;;;;;5033516;28;20029;-65
2020/12/02 01:45:58;;;;;;;30.13;19.27;;;4.10;55.30;;;;;;5033672;28;20026;-65
2020/12/02 01:48:30;;;;;;;28.80;18.57;;;4.10;55.30;;;;;;5033837;28;20018;-65
2020/12/02 01:51:01;;;;;;;30.60;17.70;;;4.00;55.40;;;;;;5034012;28;20029;-65
2020/12/02 01:53:59;;;;;;;31.37;19.63;;;4.00;55.60;;;;;;5033782;28;20029;-65
2020/12/02 01:56:35;;;;;;;29.97;18.27;;;4.00;55.60;;;;;;5033664;28;20104;-65
2020/12/02 01:59:13;;;;;;;29.77;17.57;;;4.00;55.80;;;;;;5031019;28;20112;-65
2020/12/02 02:01:58;;;;;;;29.07;17.93;;;4.00;56.20;;;;;;5029868;28;20026;-66
2020/12/02 02:04:51;;;;;;;26.80;17.60;;;3.90;56.20;;;;;;5031580;28;20219;-65
2020/12/02 02:07:19;;;;;;;;;;;3.90;56.20;;;;;;5033004;28;20502;-66
2020/12/02 02:09:48;;;;;;;27.90;17.70;;;3.90;55.90;;;;;;5033192;28;19912;-65
2020/12/02 02:12:26;;;;;;;29.23;17.60;;;3.80;55.70;;;;;;5033381;28;20478;-65
2020/12/02 02:15:33;;;;;;;29.20;18.40;;;3.90;55.60;;;;;;5032819;28;20022;-65
2020/12/02 02:18:04;;;;;;;28.40;17.07;;;3.80;55.60;;;;;;5032884;28;20046;-65
2020/12/02 02:20:34;;;;;;;33.17;18.67;;;3.90;55.50;;;;;;5032837;28;20056;-66
2020/12/02 02:23:00;;;;;;;30.73;18.43;;;3.80;55.80;;;;;;5032982;28;20025;-66
2020/12/02 02:25:26;;;;;;;30.07;18.90;;;3.80;55.70;;;;;;5033008;28;20036;-65
2020/12/02 02:27:55;;;;;;;34.77;19.07;;;3.80;55.90;;;;;;5032994;28;20031;-65
2020/12/02 02:30:22;;;;;;;29.80;18.77;;;3.80;56.20;;;;;;5032958;28;20080;-65
2020/12/02 02:32:48;;;;;;;33.63;19.37;;;3.80;56.20;;;;;;5033043;28;20108;-66
2020/12/02 02:35:15;;;;;;;28.87;17.87;;;3.80;56.00;;;;;;5033265;28;20521;-65
2020/12/02 02:37:40;;;;;;;29.83;17.63;;;3.70;56.30;;;;;;5032836;28;20018;-66
2020/12/02 02:40:10;;;;;;;29.37;18.17;;;3.80;56.40;;;;;;5032730;28;20040;-65
2020/12/02 02:42:38;;;;;;;31.03;18.90;;;3.80;56.50;;;;;;5032673;28;20541;-66
2020/12/02 02:45:12;;;;;;;30.73;18.60;;;3.80;56.30;;;;;;5032992;28;20030;-65
2020/12/02 02:47:38;;;;;;;31.30;18.10;;;3.80;56.40;;;;;;5033055;28;20531;-65
2020/12/02 02:50:11;;;;;;;28.83;17.70;;;3.80;56.40;;;;;;5032600;28;20033;-65
2020/12/02 02:52:38;;;;;;;30.20;18.63;;;3.80;56.40;;;;;;5032724;28;20112;-65
2020/12/02 02:55:10;;;;;;;31.67;19.20;;;3.80;56.70;;;;;;5032712;28;20036;-79
2020/12/02 02:57:36;;;;;;;30.92;18.65;;;3.80;56.60;;;;;;5032650;28;20233;-65
2020/12/02 03:00:06;;;;;;;31.43;17.53;;;3.80;56.50;;;;;;5032701;28;20100;-65
2020/12/02 03:02:32;;;;;;;28.90;18.10;;;3.80;56.60;;;;;;5032671;28;20028;-65
2020/12/02 03:04:59;;;;;;;30.37;17.83;;;3.80;56.60;;;;;;5032716;28;20025;-65
2020/12/02 03:07:25;;;;;;;29.43;17.33;;;3.80;56.60;;;;;;5033028;28;20021;-65
2020/12/02 03:09:51;;;;;;;26.77;16.23;;;3.80;56.80;;;;;;5033026;28;20030;-66
2020/12/02 03:12:16;;;;;;;30.47;17.93;;;3.90;57.00;;;;;;5034347;28;20026;-65
2020/12/02 03:14:43;;;;;;;28.13;17.17;;;3.90;57.00;;;;;;5036542;28;20029;-65
2020/12/02 03:17:14;;;;;;;27.53;17.47;;;3.90;57.00;;;;;;5036267;28;20056;-66
2020/12/02 03:19:47;;;;;;;29.30;17.03;;;3.90;56.90;;;;;;5036320;28;20045;-65
2020/12/02 03:22:13;;;;;;;28.33;17.80;;;3.90;56.70;;;;;;5036600;28;20031;-65
2020/12/02 03:24:42;;;;;;;29.03;17.63;;;3.90;56.90;;;;;;5035981;28;20465;-66
2020/12/02 03:27:08;;;;;;;28.03;16.77;;;3.90;57.10;;;;;;5036462;28;20074;-65
2020/12/02 03:29:34;;;;;;;24.90;16.20;;;4.00;57.10;;;;;;5036470;28;20037;-65
2020/12/02 03:32:00;;;;;;;28.37;16.80;;;3.90;56.80;;;;;;5036334;28;20398;-65
2020/12/02 03:34:26;;;;;;;28.63;16.20;;;3.90;56.90;;;;;;5036170;28;20021;-65
2020/12/02 03:36:51;;;;;;;26.67;16.60;;;4.00;56.90;;;;;;5036284;28;20522;-65
2020/12/02 03:39:18;;;;;;;30.63;16.70;;;4.00;57.00;;;;;;5036102;28;20044;-66
2020/12/02 03:41:44;;;;;;;26.27;16.00;;;4.00;56.90;;;;;;5036018;28;20103;-65
2020/12/02 03:44:10;;;;;;;29.13;16.43;;;4.00;56.90;;;;;;5035815;28;20037;-80
2020/12/02 03:46:36;;;;;;;26.63;17.03;;;4.00;56.60;;;;;;5035892;28;20021;-80
2020/12/02 03:49:03;;;;;;;32.27;17.70;;;4.00;56.70;;;;;;5035827;28;20059;-66
2020/12/02 03:51:30;;;;;;;25.47;16.47;;;4.00;56.80;;;;;;5035806;28;20113;-66
2020/12/02 03:53:56;;;;;;;26.17;16.73;;;4.00;56.70;;;;;;5035863;28;20022;-66
2020/12/02 03:56:22;;;;;;;29.70;16.03;;;4.00;56.90;;;;;;5035785;28;20087;-65
2020/12/02 03:58:48;;;;;;;28.20;17.00;;;4.00;57.10;;;;;;5035480;28;20433;-65
2020/12/02 04:01:15;;;;;;;28.80;16.87;;;4.00;56.80;;;;;;5035818;28;20029;-66
2020/12/02 04:03:41;;;;;;;26.00;16.60;;;4.00;56.70;;;;;;5035886;28;20504;-65
2020/12/02 04:06:09;;;;;;;31.87;17.53;;;4.00;56.90;;;;;;5035663;28;20030;-66
2020/12/02 04:08:40;;;;;;;26.17;16.33;;;4.00;56.90;;;;;;5035662;28;20029;-65
2020/12/02 04:11:07;;;;;;;30.53;17.23;;;4.00;57.20;;;;;;5035697;28;20104;-65
2020/12/02 04:13:33;;;;;;;25.83;15.90;;;3.90;56.90;;;;;;5035364;28;20021;-65
2020/12/02 04:15:59;;;;;;;31.37;17.07;;;4.00;56.90;;;;;;5035394;28;20033;-66
2020/12/02 04:18:25;;;;;;;26.07;16.33;;;4.00;56.90;;;;;;5035220;28;20506;-65
2020/12/02 04:20:51;;;;;;;27.40;16.63;;;4.00;57.00;;;;;;5035508;28;20037;-66
2020/12/02 04:23:17;;;;;;;31.33;17.47;;;4.00;57.00;;;;;;5035000;28;20056;-65
2020/12/02 04:25:42;;;;;;;28.83;17.87;;;4.00;57.00;;;;;;5035303;28;20099;-66
2020/12/02 04:28:08;;;;;;;27.33;16.53;;;4.00;57.10;;;;;;5035111;28;20029;-65
2020/12/02 04:30:34;;;;;;;23.87;15.43;;;4.00;57.10;;;;;;5035152;28;20161;-65
2020/12/02 04:32:59;;;;;;;26.30;15.53;;;4.00;57.00;;;;;;5035283;28;20413;-65
2020/12/02 04:35:25;;;;;;;24.97;15.73;;;4.10;56.90;;;;;;5035139;28;20386;-65
2020/12/02 04:37:51;;;;;;;28.17;16.67;;;4.00;56.80;;;;;;5035467;28;20030;-64
2020/12/02 04:40:23;;;;;;;26.80;15.90;;;4.00;56.90;;;;;;5034944;28;20029;-65
2020/12/02 04:42:58;;;;;;;28.25;16.63;;;4.10;57.10;;;;;;5035044;28;20049;-65
2020/12/02 04:45:24;;;;;;;26.77;16.77;;;4.00;57.10;;;;;;5034929;28;20378;-65
2020/12/02 04:47:50;;;;;;;27.07;15.83;;;4.10;57.20;;;;;;5034960;28;20058;-65
2020/12/02 04:50:25;;;;;;;28.43;16.10;;;4.10;57.40;;;;;;5034581;28;20033;-65
2020/12/02 04:53:12;;;;;;;26.17;16.17;;;4.10;57.10;;;;;;5034822;28;20021;-66
2020/12/02 04:55:41;;;;;;;26.03;15.70;;;4.10;57.20;;;;;;5034584;28;20474;-65
2020/12/02 04:58:27;;;;;;;28.60;16.53;;;4.10;57.10;;;;;;5034959;28;20053;-65
2020/12/02 05:00:53;;;;;;;24.83;16.13;;;4.10;57.00;;;;;;5034756;28;20561;-65
2020/12/02 05:03:19;;;;;;;29.20;17.17;;;4.10;57.00;;;;;;5034545;28;20029;-65
2020/12/02 05:05:45;;;;;;;27.03;16.03;;;4.10;56.80;;;;;;5034628;28;20397;-65
2020/12/02 05:08:30;;;;;;;23.90;15.67;;;4.10;56.50;;;;;;5034700;28;20029;-65
2020/12/02 05:10:57;;;;;;;29.23;16.53;;;4.20;56.40;;;;;;5034944;28;20429;-65
2020/12/02 05:13:25;;;;;;;25.00;14.97;;;4.20;56.70;;;;;;5034686;28;20021;-65
2020/12/02 05:16:23;;;;;;;29.30;16.23;;;4.20;56.50;;;;;;5034013;28;20033;-64
2020/12/02 05:19:00;;;;;;;27.60;16.20;;;4.20;56.90;;;;;;5033021;28;20053;-64
2020/12/02 05:21:40;;;;;;;28.50;15.87;;;4.20;56.40;;;;;;5034295;28;20061;-64
2020/12/02 05:24:41;;;;;;;26.87;16.47;;;4.20;56.30;;;;;;5034035;28;20021;-64
2020/12/02 05:27:13;;;;;;;28.10;16.40;;;4.20;56.40;;;;;;5034215;28;20029;-65
2020/12/02 05:30:02;;;;;;;27.85;16.77;;;4.10;56.50;;;;;;5034427;28;20025;-65
2020/12/02 05:32:29;;;;;;;27.87;16.03;;;4.20;56.50;;;;;;5033102;28;20041;-65
2020/12/02 05:34:55;;;;;;;24.97;16.03;;;4.20;56.10;;;;;;5033997;28;20072;-64
2020/12/02 05:37:32;;;;;;;25.70;16.20;;;4.20;56.30;;;;;;5033890;28;20035;-65
2020/12/02 05:40:03;;;;;;;28.77;16.07;;;4.20;56.30;;;;;;5033860;28;20037;-66
2020/12/02 05:42:34;;;;;;;30.10;15.77;;;4.20;56.10;;;;;;5033993;28;20105;-79
2020/12/02 05:45:20;;;;;;;26.87;16.27;;;4.20;56.10;;;;;;5033913;28;20418;-64
2020/12/02 05:47:51;;;;;;;27.77;16.07;;;4.20;56.40;;;;;;5033663;28;20028;-64
2020/12/02 05:50:26;;;;;;;27.83;16.13;;;4.20;56.40;;;;;;5033723;28;20084;-64
2020/12/02 05:53:11;;;;;;;30.43;16.33;;;4.20;56.30;;;;;;5033706;28;20109;-63
2020/12/02 05:55:37;;;;;;;30.50;15.80;;;4.20;56.60;;;;;;5033523;28;20039;-64
2020/12/02 05:58:08;;;;;;;22.80;15.13;;;4.20;56.80;;;;;;5033639;28;20096;-64
2020/12/02 06:00:34;;;;;;;28.03;15.90;;;4.20;56.30;;;;;;5033455;28;20115;-64
2020/12/02 06:03:01;;;;;;;25.03;15.30;;;4.30;56.10;;;;;;5033449;28;20060;-64
2020/12/02 06:05:30;;;;;;;27.00;15.17;;;4.30;56.30;;;;;;5033198;28;20032;-64
2020/12/02 06:07:59;;;;;;;22.80;14.17;;;4.30;56.40;;;;;;5033778;28;20018;-64
2020/12/02 06:10:43;;;;;;;23.30;14.83;;;4.30;56.90;;;;;;5033714;28;20403;-64
2020/12/02 06:13:33;;;;;;;28.33;15.50;;;4.30;57.00;;;;;;5033375;28;20053;-65
2020/12/02 06:15:59;;;;;;;24.93;15.43;;;4.30;57.10;;;;;;5033281;28;20087;-64
2020/12/02 06:18:28;;;;;;;24.20;13.93;;;4.30;57.70;;;;;;5033063;28;20081;-64
2020/12/02 06:20:54;;;;;;;25.43;15.93;;;4.30;57.60;;;;;;5033160;28;20037;-65
2020/12/02 06:23:31;;;;;;;27.10;14.50;;;4.30;57.70;;;;;;5033303;28;20013;-65
2020/12/02 06:25:57;;;;;;;24.10;14.63;;;4.30;58.20;;;;;;5033389;28;20029;-65
2020/12/02 06:28:29;;;;;;;23.57;13.87;;;4.30;58.40;;;;;;5033387;28;20022;-65
2020/12/02 06:31:05;;;;;;;26.87;14.50;;;4.30;58.00;;;;;;5033214;28;20025;-65
2020/12/02 06:33:37;;;;;;;24.93;14.03;;;4.30;58.40;;;;;;5032986;28;20087;-65
2020/12/02 06:36:43;;;;;;;24.33;13.30;;;4.30;58.30;;;;;;5032984;28;20029;-65
2020/12/02 06:39:09;;;;;;;22.60;13.40;;;4.20;58.90;;;;;;5031687;28;20288;-64
2020/12/02 06:41:40;;;;;;;22.07;13.63;;;4.20;58.50;;;;;;5033506;28;20044;-65
2020/12/02 06:44:11;;;;;;;23.83;13.23;;;4.20;58.50;;;;;;5033375;28;20445;-65
2020/12/02 06:46:55;;;;;;;24.93;13.53;;;4.10;59.10;;;;;;5033203;28;20109;-65
2020/12/02 06:49:24;;;;;;;20.57;13.13;;;4.10;58.90;;;;;;5037038;28;20053;-65
2020/12/02 06:51:58;;;;;;;21.97;13.70;;;4.10;60.00;;;;;;5036569;28;20474;-63
2020/12/02 06:54:27;;;;;;;21.00;12.43;;;4.10;60.00;;;;;;5036857;28;20030;-65
2020/12/02 06:57:13;;;;;;;21.97;13.53;;;4.10;59.30;;;;;;5036984;28;20026;-65
2020/12/02 07:00:00;;;;;;;20.07;12.37;;;4.00;58.70;;;;;;5037107;28;20124;-64
2020/12/02 07:02:39;;;;;;;23.03;12.43;;;4.00;58.90;;;;;;5036669;28;20049;-64
2020/12/02 07:05:12;;;;;;;22.33;13.27;;;4.00;59.90;;;;;;5036549;28;20025;-64
2020/12/02 07:07:38;;;;;;;19.77;11.95;;;3.90;60.60;;;;;;5036750;28;20025;-64
2020/12/02 07:10:04;;;;;;;20.13;12.70;;;3.90;62.00;;;;;;5036892;28;20029;-65
2020/12/02 07:12:31;;;;;;;23.03;13.73;;;3.80;61.90;;;;;;5036794;28;20060;-66
2020/12/02 07:15:00;;;;;;;22.43;13.63;;;3.80;62.30;;;;;;5036626;28;20083;-66
2020/12/02 07:17:27;;;;;;;22.83;12.97;;;3.80;63.50;;;;;;5036642;28;20049;-66
2020/12/02 07:19:53;;;;;;;24.07;13.90;;;3.80;65.10;;;;;;5036333;28;20073;-66
2020/12/02 07:22:26;;;;;;;23.87;14.13;;;3.80;67.50;;;;;;5036443;28;20056;-63
2020/12/02 07:24:58;;;;;;;21.88;14.43;;;3.80;68.30;;;;;;5036202;28;20064;-66
2020/12/02 07:27:24;;;;;;;22.67;14.05;;;3.80;68.30;;;;;;5036685;28;20028;-65
2020/12/02 07:30:06;;;;;;;23.57;15.00;;;3.80;69.60;;;;;;5036483;28;20112;-66
2020/12/02 07:32:32;;;;;;;23.40;13.98;;;3.70;69.50;;;;;;5036343;28;20060;-65
2020/12/02 07:35:04;;;;;;;27.23;15.07;;;3.70;71.00;;;;;;5036203;28;20092;-65
2020/12/02 07:37:30;;;;;;;23.53;14.30;;;3.70;70.90;;;;;;5036011;28;20029;-66
2020/12/02 07:40:00;;;;;;;23.17;14.57;;;3.70;72.00;;;;;;5035999;28;20068;-66
2020/12/02 07:42:40;;;;;;;22.63;13.97;;;3.70;71.80;;;;;;5036313;28;20017;-66
2020/12/02 07:45:26;;;;;;;21.93;13.60;;;3.60;72.30;;;;;;5035985;28;20107;-66
2020/12/02 07:48:10;;;;;;;26.13;13.57;;;3.60;72.30;;;;;;5035886;28;20021;-66
2020/12/02 07:51:14;;;;;;;24.13;13.43;;;3.70;72.00;;;;;;5036100;28;20053;-66
2020/12/02 07:53:42;;;;;;;;;;;3.60;72.00;;;;;;5036353;28;20111;-66
2020/12/02 07:56:18;;;;;;;18.50;12.37;;;3.60;70.30;;;;;;5035836;28;19996;-65
2020/12/02 07:58:45;;;;;;;19.97;12.33;;;3.60;71.70;;;;;;5034132;28;20053;-66
2020/12/02 08:01:27;;;;;;;21.03;13.67;;;3.60;71.50;;;;;;5035666;28;20033;-66
2020/12/02 08:03:53;;;;;;;26.25;15.00;;;3.60;72.50;;;;;;5033498;28;20037;-66
2020/12/02 08:06:29;;;;;;;28.17;17.87;;;3.60;73.10;;;;;;5032875;28;20487;-64
2020/12/02 08:08:54;;;;;;;28.73;18.80;;;3.60;73.20;;;;;;5033550;28;20037;-66
2020/12/02 08:11:20;;;;;;;31.20;18.70;;;3.60;73.90;;;;;;5035490;28;20422;-66
2020/12/02 08:13:55;;;;;;;28.87;18.20;;;3.60;73.80;;;;;;5035650;28;20027;-67
2020/12/02 08:16:37;;;;;;;20.70;14.43;;;3.60;73.70;;;;;;5035620;28;20541;-67
2020/12/02 08:19:03;;;;;;;24.00;15.43;;;3.60;72.90;;;;;;5034943;28;20045;-66
2020/12/02 08:21:29;;;;;;;23.00;13.83;;;3.60;71.40;;;;;;5035351;28;20605;-66
2020/12/02 08:24:09;;;;;;;23.90;16.00;;;3.60;71.60;;;;;;5035289;28;20092;-66
2020/12/02 08:26:35;;;;;;;20.03;13.60;;;3.60;72.00;;;;;;5035246;28;20036;-66
2020/12/02 08:29:06;;;;;;;17.90;11.53;;;3.60;72.30;;;;;;5035202;28;20034;-66
2020/12/02 08:31:33;;;;;;;19.67;13.10;;;3.60;72.10;;;;;;5035299;28;20032;-65
2020/12/02 08:34:37;;;;;;;23.93;13.90;;;3.60;72.80;;;;;;5033703;28;20409;-66
2020/12/02 08:37:32;;;;;;;23.20;15.10;;;3.60;74.00;;;;;;5032096;28;20038;-65
2020/12/02 08:40:17;;;;;;;19.80;12.47;;;3.60;74.10;;;;;;5032581;28;20132;-71
2020/12/02 08:42:43;;;;;;;17.70;11.63;;;3.60;73.90;;;;;;5034684;28;20376;-65
2020/12/02 08:45:19;;;;;;;20.17;12.27;;;3.60;74.90;;;;;;5040510;28;20029;-75
2020/12/02 08:47:52;;;;;;;19.87;12.63;;;3.60;75.60;;;;;;5054381;28;20496;-75
2020/12/02 08:50:28;;;;;;;18.77;11.77;;;3.60;75.80;;;;;;5053908;28;20079;-75
2020/12/02 08:52:56;;;;;;;18.80;12.60;;;3.60;75.50;;;;;;5054096;28;20021;-74
2020/12/02 08:55:22;;;;;;;20.03;12.73;;;3.60;75.90;;;;;;5053904;28;20033;-76
2020/12/02 08:57:49;;;;;;;22.50;13.13;;;3.50;76.20;;;;;;5053520;28;20067;-75
2020/12/02 09:00:19;;;;;;;18.80;12.07;;;3.50;77.20;;;;;;5053915;28;20135;-74
2020/12/02 09:02:45;;;;;;;18.63;12.40;;;3.50;76.80;;;;;;5054008;28;20029;-75
2020/12/02 09:05:11;;;;;;;22.93;12.53;;;3.50;77.40;;;;;;5053813;28;20107;-76
2020/12/02 09:07:37;;;;;;;20.70;14.23;;;3.50;77.30;;;;;;5054073;28;20063;-76
2020/12/02 09:10:04;;;;;;;21.03;13.80;;;3.50;77.30;;;;;;5053632;28;20036;-74
2020/12/02 09:12:30;;;;;;;20.00;14.23;;;3.40;78.10;;;;;;5053794;28;20466;-73
2020/12/02 09:14:56;;;;;;;21.07;13.63;;;3.40;78.40;;;;;;5053785;28;20033;-75
2020/12/02 09:17:22;;;;;;;23.17;13.83;;;3.40;78.10;;;;;;5053694;28;20055;-74
2020/12/02 09:19:48;;;;;;;24.87;13.23;;;3.40;78.20;;;;;;5053746;28;20036;-75
2020/12/02 09:22:13;;;;;;;21.00;13.97;;;3.40;79.00;;;;;;5053829;28;20020;-74
2020/12/02 09:24:41;;;;;;;21.70;15.03;;;3.40;79.30;;;;;;5053457;28;20029;-70
2020/12/02 09:27:07;;;;;;;22.67;15.63;;;3.40;78.60;;;;;;5053519;28;20151;-76
2020/12/02 09:29:32;;;;;;;26.10;14.93;;;3.40;78.60;;;;;;5053629;28;20100;-75
2020/12/02 09:31:58;;;;;;;19.53;13.27;;;3.40;79.10;;;;;;5053648;28;20021;-76
2020/12/02 09:34:24;;;;;;;21.47;14.73;;;3.30;78.80;;;;;;5053529;28;20052;-76
2020/12/02 09:36:49;;;;;;;21.97;14.97;;;3.30;79.20;;;;;;5053186;28;20024;-75
2020/12/02 09:39:15;;;;;;;21.60;13.63;;;3.30;79.60;;;;;;5053464;28;20028;-76
2020/12/02 09:42:12;;;;;;;24.40;15.20;;;3.30;79.50;;;;;;5053445;28;20029;-76
2020/12/02 09:44:45;;;;;;;27.23;16.13;;;3.30;80.20;;;;;;5053073;28;20409;-77
2020/12/02 09:47:14;;;;;;;23.27;15.85;;;3.30;79.90;;;;;;5053225;28;20017;-76
2020/12/02 09:49:41;;;;;;;22.87;14.30;;;3.30;80.00;;;;;;5053329;28;20096;-76
2020/12/02 09:52:09;;;;;;;24.10;15.47;;;3.30;79.10;;;;;;5053259;28;20025;-75
2020/12/02 09:54:44;;;;;;;22.60;14.33;;;3.30;79.20;;;;;;5053138;28;20052;-71
2020/12/02 09:57:25;;;;;;;21.10;13.53;;;3.30;79.10;;;;;;5049326;28;20112;-64
2020/12/02 09:59:55;;;;;;;20.97;14.70;;;3.30;78.80;;;;;;5031747;28;20056;-65
2020/12/02 10:02:36;;;;;;;26.63;15.27;;;3.30;79.50;;;;;;5032999;28;20037;-65
2020/12/02 10:05:30;;;;;;;26.57;15.07;;;3.30;79.70;;;;;;5052534;28;20060;-65
2020/12/02 10:07:59;;;;;;;22.70;14.53;;;3.30;79.10;;;;;;5053011;28;20485;-65
2020/12/02 10:10:39;;;;;;;23.90;15.33;;;3.30;79.40;;;;;;5052828;28;20032;-65
2020/12/02 10:13:16;;;;;;;25.93;14.83;;;3.30;79.80;;;;;;5053536;28;20393;-64
2020/12/02 10:16:05;;;;;;;25.00;15.17;;;3.30;79.80;;;;;;5053063;28;20021;-65
2020/12/02 10:18:51;;;;;;;20.77;14.20;;;3.30;79.90;;;;;;5053306;28;20049;-65
2020/12/02 10:21:29;;;;;;;21.90;14.37;;;3.30;80.10;;;;;;5051924;28;20404;-65
2020/12/02 10:24:30;;;;;;;29.43;16.43;;;3.30;79.80;;;;;;5052895;28;20029;-65
2020/12/02 10:27:23;;;;;;;33.87;18.83;;;3.30;80.10;;;;;;5053068;28;20474;-64
2020/12/02 10:30:13;;;;;;;27.45;19.23;;;3.30;80.50;;;;;;5053042;28;20029;-65
2020/12/02 10:32:57;;;;;;;27.33;17.20;;;3.30;80.30;;;;;;5052986;28;20025;-64
2020/12/02 10:35:25;;;;;;;25.40;16.10;;;3.30;80.60;;;;;;5052923;28;20071;-64
2020/12/02 10:37:56;;;;;;;24.47;17.23;;;3.30;80.60;;;;;;5053067;28;20024;-64
2020/12/02 10:40:22;;;;;;;29.77;18.53;;;3.30;80.50;;;;;;5052739;28;20497;-64
2020/12/02 10:43:38;;;;;;;27.23;17.50;;;3.30;80.20;;;;;;5052838;28;20028;-64
2020/12/02 10:46:05;;;;;;;25.73;15.93;;;3.30;80.00;;;;;;5050791;28;20033;-65
2020/12/02 10:48:48;;;;;;;24.80;16.37;;;3.20;80.10;;;;;;5052520;28;20045;-64
2020/12/02 10:51:14;;;;;;;28.27;16.00;;;3.20;80.40;;;;;;5053131;28;20028;-65
2020/12/02 10:53:43;;;;;;;26.43;16.47;;;3.20;81.00;;;;;;5052930;28;20046;-65
2020/12/02 10:56:09;;;;;;;28.07;17.33;;;3.20;81.10;;;;;;5052990;28;20025;-65
2020/12/02 10:58:34;;;;;;;25.83;15.63;;;3.20;81.20;;;;;;5053031;28;20065;-64
2020/12/02 11:01:07;;;;;;;25.57;16.30;;;3.20;80.90;;;;;;5052547;28;20491;-65
2020/12/02 11:03:38;;;;;;;26.02;18.38;;;3.20;80.90;;;;;;5052801;28;20466;-65
2020/12/02 11:06:10;;;;;;;23.37;16.37;;;3.20;81.70;;;;;;5052593;28;20040;-65
2020/12/02 11:08:48;;;;;;;25.95;17.08;;;3.20;82.20;;;;;;5052728;28;20104;-65
2020/12/02 11:11:46;;;;;;;25.00;15.80;;;3.20;81.80;;;;;;5052954;28;20031;-65
2020/12/02 11:14:26;;;;;;;30.93;16.67;;;3.20;81.50;;;;;;5051704;28;20090;-66
2020/12/02 11:17:30;;;;;;;26.67;14.53;;;3.20;80.50;;;;;;5052445;28;20499;-65
2020/12/02 11:20:28;;;;;;;22.37;13.87;;;3.20;80.80;;;;;;5052337;28;20041;-65
2020/12/02 11:22:59;;;;;;;21.23;13.73;;;3.20;80.30;;;;;;5052052;28;20032;-66
2020/12/02 11:25:39;;;;;;;20.53;13.93;;;3.30;80.60;;;;;;5052539;28;20028;-65
2020/12/02 11:28:05;;;;;;;21.77;14.00;;;3.30;80.60;;;;;;5052683;28;20029;-65
2020/12/02 11:30:37;;;;;;;20.77;13.93;;;3.30;80.70;;;;;;5053144;28;20025;-65
2020/12/02 11:33:15;;;;;;;21.45;12.32;;;3.30;81.10;;;;;;5053470;28;20393;-64
2020/12/02 11:35:45;;;;;;;21.47;13.50;;;3.40;80.70;;;;;;5056231;28;20030;-65
2020/12/02 11:38:31;;;;;;;24.27;15.37;;;3.40;80.20;;;;;;5056082;28;20037;-65
2020/12/02 11:41:22;;;;;;;65.43;30.87;;;3.40;80.40;;;;;;5056047;28;20041;-65
2020/12/02 11:43:54;;;;;;;100.83;49.53;;;3.40;80.60;;;;;;5056156;28;20485;-65
2020/12/02 11:46:22;;;;;;;83.25;44.42;;;3.40;81.40;;;;;;5056158;28;20033;-64
2020/12/02 11:48:58;;;;;;;35.57;21.50;;;3.40;81.50;;;;;;5055952;28;20025;-64
2020/12/02 11:51:29;;;;;;;25.77;17.57;;;3.40;82.00;;;;;;5056036;28;20028;-64
2020/12/02 11:53:59;;;;;;;22.00;14.83;;;3.40;81.90;;;;;;5055942;28;20489;-65
2020/12/02 11:56:33;;;;;;;25.43;15.60;;;3.40;80.60;;;;;;5056255;28;20428;-65
2020/12/02 11:59:10;;;;;;;27.07;17.77;;;3.40;80.50;;;;;;5055764;28;20103;-65
2020/12/02 12:01:49;;;;;;;24.70;15.80;;;3.30;80.90;;;;;;5055596;28;20495;-64
2020/12/02 12:04:27;;;;;;;30.80;17.03;;;3.30;80.80;;;;;;5055756;28;20367;-64
2020/12/02 12:06:55;;;;;;;25.00;15.50;;;3.30;80.50;;;;;;5055672;28;20029;-65
2020/12/02 12:09:37;;;;;;;24.17;15.70;;;3.20;80.60;;;;;;5055930;28;20031;-65
2020/12/02 12:12:28;;;;;;;24.80;15.63;;;3.20;81.00;;;;;;5055456;28;20139;-65
2020/12/02 12:15:09;;;;;;;25.37;15.10;;;3.20;80.60;;;;;;5055709;28;20150;-65
2020/12/02 12:17:40;;;;;;;22.50;14.37;;;3.20;80.90;;;;;;5055295;28;20053;-65
2020/12/02 12:20:16;;;;;;;18.97;13.17;;;3.20;81.30;;;;;;5055404;28;20041;-65
2020/12/02 12:23:14;;;;;;;22.87;14.13;;;3.20;81.10;;;;;;5055250;28;20036;-65
2020/12/02 12:25:40;;;;;;;25.00;15.93;;;3.20;80.90;;;;;;5054364;28;20048;-65
2020/12/02 12:28:07;;;;;;;23.37;15.40;;;3.20;80.50;;;;;;5053930;28;20399;-65
2020/12/02 12:30:33;;;;;;;21.90;15.13;;;3.20;81.50;;;;;;5052368;28;20493;-65
2020/12/02 12:33:12;;;;;;;20.70;15.00;;;3.20;82.60;;;;;;5052134;28;20052;-65
2020/12/02 12:35:43;;;;;;;23.13;15.30;;;3.20;82.10;;;;;;5053839;28;20397;-65
2020/12/02 12:38:29;;;;;;;73.07;38.90;;;3.20;82.40;;;;;;5055121;28;20021;-66
2020/12/02 12:41:24;;;;;;;67.50;38.97;;;3.20;81.90;;;;;;5054983;28;20074;-67
2020/12/02 12:44:07;;;;;;;63.43;38.23;;;3.30;81.50;;;;;;5054173;28;20462;-67
2020/12/02 12:46:41;;;;;;;37.50;24.40;;;3.30;82.70;;;;;;5054209;28;20021;-66
2020/12/02 12:49:15;;;;;;;29.37;17.97;;;3.30;83.10;;;;;;5054723;28;20029;-67
2020/12/02 12:51:45;;;;;;;26.07;16.30;;;3.30;82.80;;;;;;5054528;28;20029;-66
2020/12/02 12:54:17;;;;;;;25.53;16.60;;;3.30;82.70;;;;;;5054821;28;20100;-65
2020/12/02 12:56:44;;;;;;;19.33;14.27;;;3.30;82.60;;;;;;5054632;28;20374;-65
2020/12/02 12:59:14;;;;;;;22.47;14.57;;;3.30;82.20;;;;;;5054275;28;20040;-65
2020/12/02 13:01:40;;;;;;;21.43;14.83;;;3.30;81.90;;;;;;5054478;28;20025;-65
2020/12/02 13:04:10;;;;;;;21.70;14.80;;;3.30;82.20;;;;;;5054366;28;20378;-65
2020/12/02 13:07:11;;;;;;;21.30;14.03;;;3.40;82.00;;;;;;5054411;28;20104;-65